sensor_id;sensor_type;location;lat;lon;timestamp;P1;durP1;ratioP1;P2;durP2;ratioP2
37349;SDS011;23231;52.358;4.926;2023-01-24T00:04:29;23.10;;;12.27;;
37349;SDS011;23231;52.358;4.926;2023-01-24T00:09:29;22.43;;;12.13;;
37349;SDS011;23231;52.358;4.926;2023-01-24T00:14:30;24.00;;;12.10;;
37349;SDS011;23231;52.358;4.926;2023-01-24T00:19:30;23.77;;;12.50;;
37349;SDS011;23231;52.358;4.926;2023-01-24T00:24:31;21.93;;;11.43;;
37349;SDS011;23231;52.358;4.926;2023-01-24T00:29:33;20.07;;;10.40;;
37349;SDS011;23231;52.358;4.926;2023-01-24T00:34:33;22.10;;;11.63;;
37349;SDS011;23231;52.358;4.926;2023-01-24T00:39:33;23.83;;;11.23;;
37349;SDS011;23231;52.358;4.926;2023-01-24T00:44:34;23.40;;;12.97;;
37349;SDS011;23231;52.358;4.926;2023-01-24T00:49:34;20.87;;;11.10;;
37349;SDS011;23231;52.358;4.926;2023-01-24T00:54:34;23.63;;;11.77;;
37349;SDS011;23231;52.358;4.926;2023-01-24T00:59:35;24.83;;;12.67;;
37349;SDS011;23231;52.358;4.926;2023-01-24T01:04:38;22.13;;;11.67;;
37349;SDS011;23231;52.358;4.926;2023-01-24T01:09:38;22.33;;;11.17;;
37349;SDS011;23231;52.358;4.926;2023-01-24T01:14:38;24.10;;;11.27;;
37349;SDS011;23231;52.358;4.926;2023-01-24T01:19:39;24.13;;;12.10;;
37349;SDS011;23231;52.358;4.926;2023-01-24T01:24:39;22.17;;;11.83;;
37349;SDS011;23231;52.358;4.926;2023-01-24T01:29:40;21.23;;;11.90;;
37349;SDS011;23231;52.358;4.926;2023-01-24T01:34:40;23.57;;;11.77;;
37349;SDS011;23231;52.358;4.926;2023-01-24T01:39:40;21.30;;;11.00;;
37349;SDS011;23231;52.358;4.926;2023-01-24T01:44:41;23.07;;;11.67;;
37349;SDS011;23231;52.358;4.926;2023-01-24T01:49:44;24.07;;;12.30;;
37349;SDS011;23231;52.358;4.926;2023-01-24T01:54:52;22.20;;;11.60;;
37349;SDS011;23231;52.358;4.926;2023-01-24T02:00:07;22.40;;;11.32;;
37349;SDS011;23231;52.358;4.926;2023-01-24T02:05:10;23.40;;;10.93;;
37349;SDS011;23231;52.358;4.926;2023-01-24T02:10:11;21.83;;;11.47;;
37349;SDS011;23231;52.358;4.926;2023-01-24T02:15:19;21.87;;;12.17;;
37349;SDS011;23231;52.358;4.926;2023-01-24T02:20:40;23.33;;;11.93;;
37349;SDS011;23231;52.358;4.926;2023-01-24T02:25:44;24.13;;;12.43;;
37349;SDS011;23231;52.358;4.926;2023-01-24T02:35:48;22.67;;;11.00;;
37349;SDS011;23231;52.358;4.926;2023-01-24T02:40:49;22.53;;;12.73;;
37349;SDS011;23231;52.358;4.926;2023-01-24T02:45:52;21.00;;;11.07;;
37349;SDS011;23231;52.358;4.926;2023-01-24T02:50:52;21.33;;;10.90;;
37349;SDS011;23231;52.358;4.926;2023-01-24T02:56:11;23.60;;;11.83;;
37349;SDS011;23231;52.358;4.926;2023-01-24T03:01:30;23.27;;;12.37;;
37349;SDS011;23231;52.358;4.926;2023-01-24T03:06:31;22.17;;;11.43;;
37349;SDS011;23231;52.358;4.926;2023-01-24T03:11:31;26.07;;;12.23;;
37349;SDS011;23231;52.358;4.926;2023-01-24T03:16:31;23.07;;;12.00;;
37349;SDS011;23231;52.358;4.926;2023-01-24T03:21:50;21.80;;;11.63;;
37349;SDS011;23231;52.358;4.926;2023-01-24T03:27:10;24.50;;;13.07;;
37349;SDS011;23231;52.358;4.926;2023-01-24T03:32:29;19.97;;;10.00;;
37349;SDS011;23231;52.358;4.926;2023-01-24T03:37:48;17.77;;;9.43;;
37349;SDS011;23231;52.358;4.926;2023-01-24T03:43:07;19.47;;;10.07;;
37349;SDS011;23231;52.358;4.926;2023-01-24T03:48:08;20.00;;;10.27;;
37349;SDS011;23231;52.358;4.926;2023-01-24T03:53:13;22.07;;;11.53;;
37349;SDS011;23231;52.358;4.926;2023-01-24T03:58:13;21.87;;;10.33;;
37349;SDS011;23231;52.358;4.926;2023-01-24T04:03:14;22.03;;;10.30;;
37349;SDS011;23231;52.358;4.926;2023-01-24T04:08:15;21.67;;;10.57;;
37349;SDS011;23231;52.358;4.926;2023-01-24T04:13:16;20.13;;;10.13;;
37349;SDS011;23231;52.358;4.926;2023-01-24T04:18:16;22.87;;;10.93;;
37349;SDS011;23231;52.358;4.926;2023-01-24T04:23:17;21.17;;;10.97;;
37349;SDS011;23231;52.358;4.926;2023-01-24T04:28:17;22.53;;;10.57;;
37349;SDS011;23231;52.358;4.926;2023-01-24T04:33:18;22.07;;;11.97;;
37349;SDS011;23231;52.358;4.926;2023-01-24T04:38:18;21.83;;;11.20;;
37349;SDS011;23231;52.358;4.926;2023-01-24T04:43:18;23.70;;;11.83;;
37349;SDS011;23231;52.358;4.926;2023-01-24T04:48:21;19.50;;;10.67;;
37349;SDS011;23231;52.358;4.926;2023-01-24T04:53:21;23.50;;;12.90;;
37349;SDS011;23231;52.358;4.926;2023-01-24T04:58:21;22.33;;;12.40;;
37349;SDS011;23231;52.358;4.926;2023-01-24T05:03:22;23.63;;;12.70;;
37349;SDS011;23231;52.358;4.926;2023-01-24T05:08:22;25.23;;;13.23;;
37349;SDS011;23231;52.358;4.926;2023-01-24T05:13:23;24.00;;;12.90;;
37349;SDS011;23231;52.358;4.926;2023-01-24T05:18:23;26.20;;;14.20;;
37349;SDS011;23231;52.358;4.926;2023-01-24T05:23:24;25.23;;;13.47;;
37349;SDS011;23231;52.358;4.926;2023-01-24T05:28:24;24.17;;;13.10;;
37349;SDS011;23231;52.358;4.926;2023-01-24T05:33:24;23.73;;;13.47;;
37349;SDS011;23231;52.358;4.926;2023-01-24T05:38:25;24.17;;;12.87;;
37349;SDS011;23231;52.358;4.926;2023-01-24T05:43:26;25.60;;;13.83;;
37349;SDS011;23231;52.358;4.926;2023-01-24T05:48:27;25.80;;;13.60;;
37349;SDS011;23231;52.358;4.926;2023-01-24T05:53:28;27.77;;;14.30;;
37349;SDS011;23231;52.358;4.926;2023-01-24T05:58:33;26.93;;;14.20;;
37349;SDS011;23231;52.358;4.926;2023-01-24T06:03:36;27.75;;;14.65;;
37349;SDS011;23231;52.358;4.926;2023-01-24T06:08:38;26.63;;;14.37;;
37349;SDS011;23231;52.358;4.926;2023-01-24T06:13:38;33.80;;;13.87;;
37349;SDS011;23231;52.358;4.926;2023-01-24T06:18:39;26.40;;;13.60;;
37349;SDS011;23231;52.358;4.926;2023-01-24T06:23:41;27.97;;;13.40;;
37349;SDS011;23231;52.358;4.926;2023-01-24T06:28:42;27.33;;;13.93;;
37349;SDS011;23231;52.358;4.926;2023-01-24T06:33:51;26.07;;;12.67;;
37349;SDS011;23231;52.358;4.926;2023-01-24T06:39:21;24.87;;;12.63;;
37349;SDS011;23231;52.358;4.926;2023-01-24T06:44:22;27.73;;;12.80;;
37349;SDS011;23231;52.358;4.926;2023-01-24T06:49:23;26.33;;;13.17;;
37349;SDS011;23231;52.358;4.926;2023-01-24T06:54:23;26.80;;;14.03;;
37349;SDS011;23231;52.358;4.926;2023-01-24T06:59:23;28.17;;;12.83;;
37349;SDS011;23231;52.358;4.926;2023-01-24T07:04:24;28.67;;;14.10;;
37349;SDS011;23231;52.358;4.926;2023-01-24T07:09:24;25.20;;;12.63;;
37349;SDS011;23231;52.358;4.926;2023-01-24T07:14:25;26.83;;;13.57;;
37349;SDS011;23231;52.358;4.926;2023-01-24T07:19:25;25.00;;;12.73;;
37349;SDS011;23231;52.358;4.926;2023-01-24T07:24:27;29.10;;;13.83;;
37349;SDS011;23231;52.358;4.926;2023-01-24T07:29:29;26.30;;;12.73;;
37349;SDS011;23231;52.358;4.926;2023-01-24T07:34:29;27.97;;;13.43;;
37349;SDS011;23231;52.358;4.926;2023-01-24T07:39:30;29.60;;;14.13;;
37349;SDS011;23231;52.358;4.926;2023-01-24T07:44:30;25.30;;;13.13;;
37349;SDS011;23231;52.358;4.926;2023-01-24T07:49:30;25.70;;;12.93;;
37349;SDS011;23231;52.358;4.926;2023-01-24T07:54:31;29.07;;;13.07;;
37349;SDS011;23231;52.358;4.926;2023-01-24T07:59:31;25.07;;;12.17;;
37349;SDS011;23231;52.358;4.926;2023-01-24T08:04:31;26.63;;;12.80;;
37349;SDS011;23231;52.358;4.926;2023-01-24T08:09:32;31.07;;;12.57;;
37349;SDS011;23231;52.358;4.926;2023-01-24T08:14:32;28.87;;;13.27;;
37349;SDS011;23231;52.358;4.926;2023-01-24T08:19:33;25.73;;;12.20;;
37349;SDS011;23231;52.358;4.926;2023-01-24T08:24:33;25.00;;;12.27;;
37349;SDS011;23231;52.358;4.926;2023-01-24T08:29:33;24.80;;;11.97;;
37349;SDS011;23231;52.358;4.926;2023-01-24T08:34:34;23.67;;;12.07;;
37349;SDS011;23231;52.358;4.926;2023-01-24T08:39:34;26.80;;;12.37;;
37349;SDS011;23231;52.358;4.926;2023-01-24T08:44:35;26.50;;;11.70;;
37349;SDS011;23231;52.358;4.926;2023-01-24T08:49:35;27.13;;;12.53;;
37349;SDS011;23231;52.358;4.926;2023-01-24T08:54:35;25.27;;;11.47;;
37349;SDS011;23231;52.358;4.926;2023-01-24T08:59:36;24.97;;;12.60;;
37349;SDS011;23231;52.358;4.926;2023-01-24T09:04:37;27.37;;;11.27;;
37349;SDS011;23231;52.358;4.926;2023-01-24T09:09:37;22.13;;;10.80;;
37349;SDS011;23231;52.358;4.926;2023-01-24T09:14:38;26.20;;;11.97;;
37349;SDS011;23231;52.358;4.926;2023-01-24T09:19:38;23.77;;;11.20;;
37349;SDS011;23231;52.358;4.926;2023-01-24T09:24:38;21.63;;;12.00;;
37349;SDS011;23231;52.358;4.926;2023-01-24T09:29:39;23.37;;;11.53;;
37349;SDS011;23231;52.358;4.926;2023-01-24T09:34:39;26.90;;;11.63;;
37349;SDS011;23231;52.358;4.926;2023-01-24T09:39:46;24.47;;;12.17;;
37349;SDS011;23231;52.358;4.926;2023-01-24T09:55:37;23.70;;;11.80;;
37349;SDS011;23231;52.358;4.926;2023-01-24T10:00:40;25.17;;;11.97;;
37349;SDS011;23231;52.358;4.926;2023-01-24T10:05:42;25.07;;;12.67;;
37349;SDS011;23231;52.358;4.926;2023-01-24T10:10:53;28.23;;;13.23;;
37349;SDS011;23231;52.358;4.926;2023-01-24T10:22:08;20.10;;;9.97;;
37349;SDS011;23231;52.358;4.926;2023-01-24T10:27:36;22.93;;;11.13;;
37349;SDS011;23231;52.358;4.926;2023-01-24T10:32:35;20.97;;;11.07;;
37349;SDS011;23231;52.358;4.926;2023-01-24T10:37:37;22.67;;;12.33;;
37349;SDS011;23231;52.358;4.926;2023-01-24T10:42:38;25.90;;;12.13;;
37349;SDS011;23231;52.358;4.926;2023-01-24T10:52:46;22.03;;;11.30;;
37349;SDS011;23231;52.358;4.926;2023-01-24T10:57:49;23.23;;;11.73;;
37349;SDS011;23231;52.358;4.926;2023-01-24T11:02:52;25.53;;;12.33;;
37349;SDS011;23231;52.358;4.926;2023-01-24T11:08:00;25.03;;;12.67;;
37349;SDS011;23231;52.358;4.926;2023-01-24T11:13:01;26.53;;;13.00;;
37349;SDS011;23231;52.358;4.926;2023-01-24T11:23:12;25.67;;;13.40;;
37349;SDS011;23231;52.358;4.926;2023-01-24T11:28:54;26.93;;;13.57;;
37349;SDS011;23231;52.358;4.926;2023-01-24T11:50:15;26.23;;;13.67;;
37349;SDS011;23231;52.358;4.926;2023-01-24T12:21:30;27.10;;;14.90;;
37349;SDS011;23231;52.358;4.926;2023-01-24T12:26:41;27.00;;;13.40;;
37349;SDS011;23231;52.358;4.926;2023-01-24T12:31:55;23.17;;;13.07;;
37349;SDS011;23231;52.358;4.926;2023-01-24T12:37:04;28.93;;;14.27;;
37349;SDS011;23231;52.358;4.926;2023-01-24T12:42:14;26.77;;;14.50;;
37349;SDS011;23231;52.358;4.926;2023-01-24T12:58:26;34.67;;;16.87;;
37349;SDS011;23231;52.358;4.926;2023-01-24T13:03:44;33.13;;;15.67;;
37349;SDS011;23231;52.358;4.926;2023-01-24T13:14:24;36.10;;;15.57;;
37349;SDS011;23231;52.358;4.926;2023-01-24T13:24:46;35.87;;;16.87;;
37349;SDS011;23231;52.358;4.926;2023-01-24T13:35:36;31.43;;;15.57;;
37349;SDS011;23231;52.358;4.926;2023-01-24T13:41:02;35.80;;;16.20;;
37349;SDS011;23231;52.358;4.926;2023-01-24T13:46:06;33.28;;;16.08;;
37349;SDS011;23231;52.358;4.926;2023-01-24T13:56:17;34.97;;;17.27;;
37349;SDS011;23231;52.358;4.926;2023-01-24T14:01:17;34.53;;;17.47;;
37349;SDS011;23231;52.358;4.926;2023-01-24T14:06:18;35.17;;;16.63;;
37349;SDS011;23231;52.358;4.926;2023-01-24T14:11:20;32.67;;;16.53;;
37349;SDS011;23231;52.358;4.926;2023-01-24T14:21:32;33.13;;;16.47;;
37349;SDS011;23231;52.358;4.926;2023-01-24T14:26:34;34.70;;;17.27;;
37349;SDS011;23231;52.358;4.926;2023-01-24T14:31:36;31.60;;;15.70;;
37349;SDS011;23231;52.358;4.926;2023-01-24T14:36:37;31.67;;;16.20;;
37349;SDS011;23231;52.358;4.926;2023-01-24T14:41:41;34.03;;;16.97;;
37349;SDS011;23231;52.358;4.926;2023-01-24T14:46:42;33.47;;;17.83;;
37349;SDS011;23231;52.358;4.926;2023-01-24T14:51:43;36.27;;;17.20;;
37349;SDS011;23231;52.358;4.926;2023-01-24T14:56:46;33.83;;;16.43;;
37349;SDS011;23231;52.358;4.926;2023-01-24T15:01:50;29.50;;;14.57;;
37349;SDS011;23231;52.358;4.926;2023-01-24T15:07:12;29.58;;;14.75;;
37349;SDS011;23231;52.358;4.926;2023-01-24T15:17:25;30.37;;;15.13;;
37349;SDS011;23231;52.358;4.926;2023-01-24T15:22:27;29.57;;;14.53;;
37349;SDS011;23231;52.358;4.926;2023-01-24T15:27:35;31.67;;;15.10;;
37349;SDS011;23231;52.358;4.926;2023-01-24T15:32:38;29.00;;;13.83;;
37349;SDS011;23231;52.358;4.926;2023-01-24T15:43:07;29.10;;;14.83;;
37349;SDS011;23231;52.358;4.926;2023-01-24T15:48:35;28.13;;;14.20;;
37349;SDS011;23231;52.358;4.926;2023-01-24T15:53:37;28.80;;;14.30;;
37349;SDS011;23231;52.358;4.926;2023-01-24T15:58:41;28.85;;;13.75;;
37349;SDS011;23231;52.358;4.926;2023-01-24T16:03:42;27.67;;;14.30;;
37349;SDS011;23231;52.358;4.926;2023-01-24T16:08:42;29.53;;;14.60;;
37349;SDS011;23231;52.358;4.926;2023-01-24T16:13:43;30.77;;;14.13;;
37349;SDS011;23231;52.358;4.926;2023-01-24T16:18:47;28.30;;;14.00;;
37349;SDS011;23231;52.358;4.926;2023-01-24T16:23:47;29.63;;;14.67;;
37349;SDS011;23231;52.358;4.926;2023-01-24T16:28:48;29.33;;;13.83;;
37349;SDS011;23231;52.358;4.926;2023-01-24T16:33:49;25.63;;;12.63;;
37349;SDS011;23231;52.358;4.926;2023-01-24T16:38:49;27.17;;;13.77;;
37349;SDS011;23231;52.358;4.926;2023-01-24T16:43:49;27.50;;;13.30;;
37349;SDS011;23231;52.358;4.926;2023-01-24T16:48:50;24.80;;;13.07;;
37349;SDS011;23231;52.358;4.926;2023-01-24T16:53:52;28.77;;;12.60;;
37349;SDS011;23231;52.358;4.926;2023-01-24T16:58:54;28.97;;;13.47;;
37349;SDS011;23231;52.358;4.926;2023-01-24T17:03:55;28.33;;;13.93;;
37349;SDS011;23231;52.358;4.926;2023-01-24T17:08:55;28.17;;;13.23;;
37349;SDS011;23231;52.358;4.926;2023-01-24T17:13:57;25.33;;;13.10;;
37349;SDS011;23231;52.358;4.926;2023-01-24T17:18:59;25.07;;;12.47;;
37349;SDS011;23231;52.358;4.926;2023-01-24T17:24:00;28.43;;;13.60;;
37349;SDS011;23231;52.358;4.926;2023-01-24T17:29:01;28.93;;;13.90;;
37349;SDS011;23231;52.358;4.926;2023-01-24T17:34:01;28.80;;;13.47;;
37349;SDS011;23231;52.358;4.926;2023-01-24T17:39:02;28.13;;;14.03;;
37349;SDS011;23231;52.358;4.926;2023-01-24T17:44:02;31.63;;;15.63;;
37349;SDS011;23231;52.358;4.926;2023-01-24T17:49:03;33.07;;;14.33;;
37349;SDS011;23231;52.358;4.926;2023-01-24T17:54:04;29.23;;;15.00;;
37349;SDS011;23231;52.358;4.926;2023-01-24T17:59:05;29.33;;;14.57;;
37349;SDS011;23231;52.358;4.926;2023-01-24T18:04:05;30.77;;;14.87;;
37349;SDS011;23231;52.358;4.926;2023-01-24T18:09:05;28.30;;;13.17;;
37349;SDS011;23231;52.358;4.926;2023-01-24T18:14:06;33.90;;;15.60;;
37349;SDS011;23231;52.358;4.926;2023-01-24T18:19:06;28.03;;;14.07;;
37349;SDS011;23231;52.358;4.926;2023-01-24T18:24:08;28.67;;;13.23;;
37349;SDS011;23231;52.358;4.926;2023-01-24T18:29:09;29.13;;;14.70;;
37349;SDS011;23231;52.358;4.926;2023-01-24T18:34:10;31.07;;;15.17;;
37349;SDS011;23231;52.358;4.926;2023-01-24T18:39:11;33.57;;;16.53;;
37349;SDS011;23231;52.358;4.926;2023-01-24T18:44:11;31.73;;;14.90;;
37349;SDS011;23231;52.358;4.926;2023-01-24T18:49:12;31.10;;;16.20;;
37349;SDS011;23231;52.358;4.926;2023-01-24T18:54:13;33.13;;;16.23;;
37349;SDS011;23231;52.358;4.926;2023-01-24T18:59:13;27.10;;;14.43;;
37349;SDS011;23231;52.358;4.926;2023-01-24T19:04:13;34.20;;;16.10;;
37349;SDS011;23231;52.358;4.926;2023-01-24T19:09:14;29.40;;;14.17;;
37349;SDS011;23231;52.358;4.926;2023-01-24T19:14:14;30.13;;;14.80;;
37349;SDS011;23231;52.358;4.926;2023-01-24T19:19:17;31.13;;;15.20;;
37349;SDS011;23231;52.358;4.926;2023-01-24T19:24:18;31.87;;;15.33;;
37349;SDS011;23231;52.358;4.926;2023-01-24T19:29:19;34.60;;;15.90;;
37349;SDS011;23231;52.358;4.926;2023-01-24T19:34:19;35.80;;;16.47;;
37349;SDS011;23231;52.358;4.926;2023-01-24T19:39:20;35.17;;;17.10;;
37349;SDS011;23231;52.358;4.926;2023-01-24T19:44:23;33.17;;;14.90;;
37349;SDS011;23231;52.358;4.926;2023-01-24T19:49:24;35.83;;;17.27;;
37349;SDS011;23231;52.358;4.926;2023-01-24T19:54:25;36.07;;;16.70;;
37349;SDS011;23231;52.358;4.926;2023-01-24T19:59:26;37.73;;;17.10;;
37349;SDS011;23231;52.358;4.926;2023-01-24T20:04:27;41.73;;;18.53;;
37349;SDS011;23231;52.358;4.926;2023-01-24T20:09:27;38.40;;;17.10;;
37349;SDS011;23231;52.358;4.926;2023-01-24T20:14:28;38.90;;;17.27;;
37349;SDS011;23231;52.358;4.926;2023-01-24T20:19:28;41.67;;;18.47;;
37349;SDS011;23231;52.358;4.926;2023-01-24T20:24:29;42.40;;;18.53;;
37349;SDS011;23231;52.358;4.926;2023-01-24T20:29:29;40.03;;;17.23;;
37349;SDS011;23231;52.358;4.926;2023-01-24T20:34:30;37.43;;;17.57;;
37349;SDS011;23231;52.358;4.926;2023-01-24T20:39:30;40.23;;;17.93;;
37349;SDS011;23231;52.358;4.926;2023-01-24T20:44:31;42.23;;;18.87;;
37349;SDS011;23231;52.358;4.926;2023-01-24T20:49:31;44.77;;;18.67;;
37349;SDS011;23231;52.358;4.926;2023-01-24T20:54:32;39.53;;;18.70;;
37349;SDS011;23231;52.358;4.926;2023-01-24T20:59:32;45.33;;;20.57;;
37349;SDS011;23231;52.358;4.926;2023-01-24T21:04:33;46.80;;;20.27;;
37349;SDS011;23231;52.358;4.926;2023-01-24T21:09:33;49.73;;;21.40;;
37349;SDS011;23231;52.358;4.926;2023-01-24T21:14:34;45.00;;;20.80;;
37349;SDS011;23231;52.358;4.926;2023-01-24T21:24:37;46.90;;;20.97;;
37349;SDS011;23231;52.358;4.926;2023-01-24T21:29:38;45.77;;;20.07;;
37349;SDS011;23231;52.358;4.926;2023-01-24T21:34:39;46.03;;;20.67;;
37349;SDS011;23231;52.358;4.926;2023-01-24T21:39:39;44.73;;;20.07;;
37349;SDS011;23231;52.358;4.926;2023-01-24T21:44:40;44.27;;;19.67;;
37349;SDS011;23231;52.358;4.926;2023-01-24T21:49:40;39.63;;;19.10;;
37349;SDS011;23231;52.358;4.926;2023-01-24T21:54:41;45.80;;;20.10;;
37349;SDS011;23231;52.358;4.926;2023-01-24T21:59:41;49.03;;;21.23;;
37349;SDS011;23231;52.358;4.926;2023-01-24T22:04:42;44.20;;;19.27;;
37349;SDS011;23231;52.358;4.926;2023-01-24T22:09:42;46.47;;;21.00;;
37349;SDS011;23231;52.358;4.926;2023-01-24T22:14:43;47.80;;;20.90;;
37349;SDS011;23231;52.358;4.926;2023-01-24T22:19:54;47.60;;;21.13;;
37349;SDS011;23231;52.358;4.926;2023-01-24T22:30:18;47.33;;;21.03;;
37349;SDS011;23231;52.358;4.926;2023-01-24T22:35:21;49.23;;;20.97;;
37349;SDS011;23231;52.358;4.926;2023-01-24T22:40:24;47.07;;;20.80;;
37349;SDS011;23231;52.358;4.926;2023-01-24T22:45:25;52.93;;;22.17;;
37349;SDS011;23231;52.358;4.926;2023-01-24T22:50:26;46.77;;;21.27;;
37349;SDS011;23231;52.358;4.926;2023-01-24T22:55:27;49.37;;;22.37;;
37349;SDS011;23231;52.358;4.926;2023-01-24T23:00:27;45.70;;;21.30;;
37349;SDS011;23231;52.358;4.926;2023-01-24T23:05:27;49.63;;;21.60;;
37349;SDS011;23231;52.358;4.926;2023-01-24T23:10:28;51.13;;;22.13;;
37349;SDS011;23231;52.358;4.926;2023-01-24T23:15:28;49.73;;;21.57;;
37349;SDS011;23231;52.358;4.926;2023-01-24T23:20:47;53.30;;;23.00;;
37349;SDS011;23231;52.358;4.926;2023-01-24T23:26:06;50.37;;;22.40;;
37349;SDS011;23231;52.358;4.926;2023-01-24T23:31:07;50.87;;;21.67;;
37349;SDS011;23231;52.358;4.926;2023-01-24T23:36:12;50.33;;;21.50;;
37349;SDS011;23231;52.358;4.926;2023-01-24T23:41:12;47.97;;;20.90;;
37349;SDS011;23231;52.358;4.926;2023-01-24T23:46:13;49.43;;;21.10;;
37349;SDS011;23231;52.358;4.926;2023-01-24T23:51:13;49.67;;;21.63;;
37349;SDS011;23231;52.358;4.926;2023-01-24T23:56:13;53.93;;;22.73;;
